ADDS METAR Data INFO
IDs: Format: Raw Decoded Include TAF

Data at: 2336 UTC 15 Dec 2017

KAAO 152254Z AUTO 21015G20KT 10SM CLR 08/M04 A3002 RMK AO2 SLP174 T00831044
KAAO 152154Z AUTO 22012KT 10SM CLR 09/M04 A3005 RMK AO2 SLP183 T00891039
KAAO 152054Z AUTO 23015G21KT 10SM CLR 09/M03 A3007 RMK AO2 SLP188 T00891033 56033
KAAO 151954Z AUTO 22014KT 10SM CLR 08/M03 A3008 RMK AO2 SLP195 T00831033
KAAO 151854Z AUTO 23014KT 10SM CLR 08/M03 A3012 RMK AO2 SLP208 T00781028
KAAO 151754Z AUTO 22012G16KT 10SM CLR 07/M02 A3017 RMK AO2 SLP223 T00671022 10067 21033 58012
KAAO 151654Z AUTO 23009KT 10SM CLR 05/M02 A3020 RMK AO2 SLP235 T00501017
KAAO 151554Z AUTO 23006KT 10SM CLR 01/M02 A3020 RMK AO2 SLP238 T00111022
KAAO 151454Z AUTO 27007KT 10SM CLR M01/M02 A3020 RMK AO2 SLP239 T10111022 58003
KAAO 151354Z AUTO 26008KT 10SM CLR M03/M04 A3020 RMK AO2 SLP240 T10281039
KAAO 151254Z AUTO 28008KT 10SM CLR M02/M03 A3022 RMK AO2 SLP244 T10221033
KAAO 151154Z AUTO 28007KT 10SM CLR M02/M03 A3021 RMK AO2 SLP241 T10171028 10033 21017 51006
KAAO 151054Z AUTO 29007KT 10SM CLR M01/M02 A3021 RMK AO2 SLP239 T10061017
KAAO 150954Z AUTO 30010KT 10SM SCT024 BKN050 01/M01 A3021 RMK AO2 SLP238 T00061011
KAAO 150854Z AUTO 32008KT 10SM BKN055 02/M01 A3019 RMK AO2 SLP232 T00221006 53002
KAAO 150754Z AUTO 32009KT 10SM OVC060 03/00 A3019 RMK AO2 SLP231 T00280000
KAAO 150654Z AUTO 33011KT 10SM SCT023 OVC060 03/01 A3018 RMK AO2 SLP228 T00330006
KAAO 150638Z AUTO 33011KT 10SM BKN025 OVC065 03/01 A3018 RMK AO2 T00330011
KAAO 150554Z AUTO 33013KT 10SM SCT043 BKN050 OVC070 03/01 A3019 RMK AO2 SLP230 T00330011 10072 20022 400941017 51006
KAAO 150516Z AUTO 32009KT 10SM FEW020 SCT029 OVC070 03/01 A3019 RMK AO2 T00280011
KAAO 150504Z AUTO 32010KT 10SM FEW018 BKN029 OVC070 03/01 A3018 RMK AO2 T00280011
KAAO 150454Z AUTO 32011KT 10SM SCT018 OVC070 03/01 A3018 RMK AO2 SLP229 T00280006
KAAO 150452Z AUTO 32010KT 10SM SCT018 OVC070 02/01 A3018 RMK AO2
KAAO 150442Z AUTO 32011KT 10SM BKN017 BKN070 03/01 A3018 RMK AO2 T00280006
KAAO 150354Z AUTO 33016KT 10SM FEW023 SCT030 OVC037 04/01 A3017 RMK AO2 SLP226 T00440011
KAAO 150346Z AUTO 33016G22KT 10SM FEW023 OVC035 04/01 A3016 RMK AO2 T00440011
KAAO 150318Z AUTO 33010KT 10SM SCT023 BKN029 OVC065 06/01 A3016 RMK AO2 T00560011
KAAO 150254Z AUTO 32011KT 10SM FEW029 OVC060 06/01 A3015 RMK AO2 SLP220 T00560011 51016
KAAO 150154Z AUTO 32015KT 10SM OVC036 07/01 A3014 RMK AO2 SLP217 T00670011
KAAO 150054Z AUTO 32009KT 10SM FEW045 BKN055 OVC080 07/00 A3012 RMK AO2 SLP210 T00670000
KAAO 142354Z AUTO 30005KT 10SM BKN055 BKN070 OVC110 07/M01 A3010 RMK AO2 SLP203 T00671011 10094 20067 53007
KAAO 142254Z AUTO 33008KT 10SM OVC050 08/M02 A3009 RMK AO2 SLP198 T00781017
KAAO 142154Z AUTO 32010KT 10SM BKN055 OVC070 08/M02 A3009 RMK AO2 SLP197 T00831022
KAAO 142054Z AUTO 32007KT 10SM OVC055 09/M03 A3008 RMK AO2 SLP195 T00891033 56017
KAAO 141954Z AUTO 31014G19KT 10SM CLR 09/M03 A3008 RMK AO2 SLP196 T00941033
KAAO 141854Z AUTO 32010KT 10SM CLR 08/M03 A3011 RMK AO2 SLP205 T00781033
KAAO 141754Z AUTO 35012KT 10SM CLR 08/M03 A3013 RMK AO2 SLP211 T00781033 10078 21011 50001
KAAO 141654Z AUTO 32008KT 10SM CLR 06/M03 A3015 RMK AO2 SLP217 T00611033
KAAO 141554Z AUTO 34008KT 10SM CLR 03/M02 A3015 RMK AO2 SLP219 T00331022
KAAO 141454Z AUTO 30007KT 10SM CLR M01/M03 A3013 RMK AO2 SLP214 T10061033 53015
KAAO 141354Z AUTO 32008KT 10SM CLR M01/M03 A3010 RMK AO2 SLP204 T10061033
KAAO 141254Z AUTO 33007KT 10SM CLR M01/M03 A3010 RMK AO2 SLP204 T10061033
KAAO 141154Z AUTO 31008KT 10SM CLR 01/M03 A3008 RMK AO2 SLP196 T00061028 10017 21017 53009